Overview Statistics Trail Chart Weather Telemetry Raw packets
 

This is the latest recevied weather packets stored in our database for station/object OE3MHU-12. If no packets are shown the sender has not sent any weather packets the latest 10 day(s).

<< 14 15 16 17 18 >>
Time Temp. Humidity Pressure Rain* Wind** Luminosity Snow
1787841804 28.89° C 47% 1015 hPa 0 mm - - -
1787840004 29.44° C 47% 1015.1 hPa 0 mm - - -
1787836404 30° C 47% 1015 hPa 0 mm - - -
1787834604 28.89° C 51% 1015.2 hPa 0 mm - - -
1787832805 28.33° C 50% 1015.5 hPa 0 mm - - -
1787831005 28.89° C 50% 1015.8 hPa 0 mm - - -
1787825605 27.22° C 51% 1016.1 hPa 0 mm - - -
1787822005 26.11° C 53% 1016.1 hPa 0 mm - - -
1787820205 24.44° C 57% 1016.1 hPa 0 mm - - -
1787818405 24.44° C 58% 1016.2 hPa 0 mm - - -
1787816605 22.22° C 66% 1016.5 hPa 0 mm - - -
1787814805 20° C 70% 1016.4 hPa 0 mm - - -
1787813005 17.78° C 75% 1016.9 hPa 0 mm - - -
1787809406 13.89° C 85% 1017 hPa 0 mm - - -
1787805806 13.33° C 83% 1016.5 hPa 0 mm - - -
1787804006 13.33° C 82% 1016.5 hPa 0 mm - - -
1787802206 13.33° C 82% 1016.5 hPa 0 mm - - -
1787800407 13.33° C 82% 1016.4 hPa 0 mm - - -
1787796811 13.89° C 80% 1016.3 hPa 0 mm - - -
1787796806 13.89° C 80% 1016.3 hPa 0 mm - - -
1787795006 14.44° C 79% 1016.4 hPa 0 mm - - -
1787793206 14.44° C 78% 1016.5 hPa 0 mm - - -
1787791406 15° C 77% 1016.7 hPa 0 mm - - -
1787787807 15.56° C 75% 1016.9 hPa 0 mm - - -
1787786007 16.11° C 74% 1016.9 hPa 0 mm - - -

* Rain latest hour (hover to see other rain measurements)
** Current wind speed in m/s (hover to see current wind gust speed)